CheckWX is a tool to help pilots better visualize weather data.  It is not intended as a substitute for an official pre-flight weather briefing.

21:37:19 UTC

ETNW METAR
Wunstorf Airport
Germany
Current

17 mins ago

ETNW 202120Z 23006KT 9999 BKN050 BKN160 08/03 Q1023 BLU
Observed
Feb-20 @ 21:20 UTC
Wind
  • 230° at 6 KTS
Visibility
10,000+ meters
Flight Rules
VFR
Cloud Levels
  • Broken at 5,000' AGL
  • Broken at 16,000' AGL
Temperature
C / 46°F
Dewpoint
C / 37°F
Humidity
71%
Altimeter
30.21" Hg
Pressure
1022.92 hPa
Previous

1 hour ago

ETNW 202020Z 24007KT 9999 BKN048 09/03 Q1023 BLU
Observed
Feb-20 @ 20:20 UTC
Wind
  • 240° at 7 KTS
Visibility
10,000+ meters
Flight Rules
VFR
Cloud Levels
  • Broken at 4,800' AGL
Temperature
C / 48°F
Dewpoint
C / 37°F
Humidity
66%
Altimeter
30.21" Hg
Pressure
1022.92 hPa
Previous

2 hours ago

ETNW 201920Z 24006KT 9999 BKN040 BKN070 09/03 Q1023 BLU
Observed
Feb-20 @ 19:20 UTC
Wind
  • 240° at 6 KTS
Visibility
10,000+ meters
Flight Rules
VFR
Cloud Levels
  • Broken at 4,000' AGL
  • Broken at 7,000' AGL
Temperature
C / 48°F
Dewpoint
C / 37°F
Humidity
66%
Altimeter
30.21" Hg
Pressure
1022.92 hPa